Moneta, Wyoming
Current Conditions -  °F | °C
As of 3:53 PM on Friday 28 Nov 2014 (Local Time) from KCPR Reporting Station
Clear Clear  
Wind Chill: 54°   Ceiling: Unl
Heat Index: 54°   Visibility: 10mi
Dew Point: 16°   Wind: 15mph
Humidity: 22%   Direction: 240°WSW
Pressure: 29.74"   Gusts: NA
Location:  42.8668°N, 106.312°W
Report Text: KCPR 282253Z 24013KT 10SM CLR 12/M09 A2974 RMK AO2 SLP046 T01221089
Loading
Personal Weather Stations






























Interactive Weather Map New forecast layout! Learn more

10-Day Weather Forecast

Advertisements
Track Severe Weather on mobile